createdAt,value
2023-02-19T00:00:24.772Z,19.30
2023-02-19T00:02:53.762Z,13.25
2023-02-19T00:05:22.115Z,14.55
2023-02-19T00:07:50.819Z,8.40
2023-02-19T00:10:19.567Z,10.82
2023-02-19T00:12:48.074Z,14.00
2023-02-19T00:15:18.407Z,18.88
2023-02-19T00:17:48.115Z,8.70
2023-02-19T00:20:16.768Z,13.10
2023-02-19T00:22:45.354Z,14.40
2023-02-19T00:25:13.641Z,15.20
2023-02-19T00:27:42.535Z,17.20
2023-02-19T00:30:12.621Z,17.00
2023-02-19T00:32:42.772Z,20.70
2023-02-19T00:35:11.168Z,13.70
2023-02-19T00:37:39.612Z,15.20
2023-02-19T00:40:08.942Z,14.23
2023-02-19T00:42:37.617Z,19.45
2023-02-19T00:45:06.856Z,13.63
2023-02-19T00:47:35.258Z,19.48
2023-02-19T00:50:05.684Z,19.17
2023-02-19T00:52:34.497Z,11.55
2023-02-19T00:55:03.080Z,17.70
2023-02-19T00:57:31.495Z,16.23
2023-02-19T01:00:00.360Z,17.80
2023-02-19T01:02:28.995Z,12.32
2023-02-19T01:04:57.593Z,19.17
2023-02-19T01:07:27.728Z,19.58
2023-02-19T01:09:56.107Z,16.90
2023-02-19T01:12:25.896Z,19.73
2023-02-19T01:14:55.504Z,20.98
2023-02-19T01:17:23.968Z,23.73
2023-02-19T01:19:52.822Z,16.70
2023-02-19T01:22:21.749Z,16.52
2023-02-19T01:24:51.563Z,12.75
2023-02-19T01:27:20.396Z,20.58
2023-02-19T01:29:49.089Z,20.95
2023-02-19T01:32:17.489Z,20.15
2023-02-19T01:34:46.107Z,16.90
2023-02-19T01:37:14.555Z,17.55
2023-02-19T01:39:43.359Z,20.60
2023-02-19T01:42:17.801Z,13.65
2023-02-19T01:45:24.568Z,19.90
2023-02-19T01:50:25.424Z,18.30
2023-02-19T01:52:54.441Z,17.42
2023-02-19T01:55:23.953Z,20.02
2023-02-19T01:57:56.469Z,10.43
2023-02-19T02:00:28.075Z,19.85
2023-02-19T02:02:59.380Z,14.10
2023-02-19T02:05:41.606Z,15.05
2023-02-19T02:08:27.569Z,13.75
2023-02-19T02:10:57.683Z,14.52
2023-02-19T02:13:27.592Z,18.38
2023-02-19T02:16:05.682Z,18.13
2023-02-19T02:18:43.729Z,9.93
2023-02-19T02:21:46.229Z,7.15
2023-02-19T02:24:52.935Z,15.25
2023-02-19T02:27:45.372Z,18.20
2023-02-19T02:30:39.066Z,7.13
2023-02-19T02:33:18.911Z,11.45
2023-02-19T02:35:52.534Z,13.57
2023-02-19T02:38:24.077Z,14.35
2023-02-19T02:40:53.501Z,15.07
2023-02-19T02:43:21.996Z,8.57
2023-02-19T02:45:51.835Z,16.00
2023-02-19T02:48:30.203Z,20.35
2023-02-19T02:51:02.569Z,17.02
2023-02-19T02:53:53.346Z,10.98
2023-02-19T02:56:22.129Z,12.68
2023-02-19T02:58:53.982Z,12.63
2023-02-19T03:01:46.452Z,7.30
2023-02-19T03:04:20.864Z,13.77
2023-02-19T03:06:50.617Z,9.45
2023-02-19T03:09:23.992Z,16.20
2023-02-19T03:12:11.229Z,13.48
2023-02-19T03:15:02.072Z,9.75
2023-02-19T03:17:55.614Z,12.48
2023-02-19T03:20:26.187Z,19.70
2023-02-19T03:22:55.726Z,7.18
2023-02-19T03:25:44.586Z,15.02
2023-02-19T03:28:16.658Z,13.82
2023-02-19T03:30:47.869Z,13.43
2023-02-19T03:33:20.649Z,10.82
2023-02-19T03:35:54.225Z,12.43
2023-02-19T03:38:30.829Z,10.52
2023-02-19T03:41:02.906Z,17.48
2023-02-19T03:43:36.355Z,14.30
2023-02-19T03:46:09.075Z,13.32
2023-02-19T03:48:40.767Z,10.85
2023-02-19T03:51:27.073Z,13.63
2023-02-19T03:53:58.371Z,10.70
2023-02-19T03:56:29.966Z,14.50
2023-02-19T03:59:01.003Z,15.00
2023-02-19T04:01:30.777Z,13.20
2023-02-19T04:04:03.295Z,33.78
2023-02-19T04:06:33.375Z,10.55
2023-02-19T04:09:04.395Z,14.05
2023-02-19T04:11:35.240Z,15.82
2023-02-19T04:14:06.358Z,13.73
2023-02-19T04:16:35.850Z,13.05
2023-02-19T04:19:07.390Z,10.52
2023-02-19T04:21:37.092Z,10.50
2023-02-19T04:24:08.879Z,16.55
2023-02-19T04:26:37.642Z,12.40
2023-02-19T04:29:06.757Z,14.40
2023-02-19T04:31:36.623Z,17.45
2023-02-19T04:34:07.101Z,16.55
2023-02-19T04:36:35.878Z,10.98
2023-02-19T04:39:04.615Z,14.38
2023-02-19T04:41:33.263Z,17.45
2023-02-19T04:44:01.942Z,11.65
2023-02-19T04:46:30.641Z,14.40
2023-02-19T04:48:59.492Z,12.02
2023-02-19T04:51:29.708Z,17.77
2023-02-19T04:53:58.521Z,11.77
2023-02-19T04:56:26.957Z,20.70
2023-02-19T04:58:57.912Z,14.75
2023-02-19T05:01:27.972Z,12.40
2023-02-19T05:03:56.694Z,16.50
2023-02-19T05:06:26.446Z,15.73
2023-02-19T05:08:58.467Z,9.25
2023-02-19T05:11:29.992Z,14.07
2023-02-19T05:14:00.416Z,21.33
2023-02-19T05:16:28.920Z,12.35
2023-02-19T05:18:57.802Z,15.05
2023-02-19T05:21:26.370Z,13.85
2023-02-19T05:23:57.037Z,15.93
2023-02-19T05:26:26.818Z,17.20
2023-02-19T05:28:55.212Z,14.02
2023-02-19T05:31:24.104Z,15.30
2023-02-19T05:33:53.087Z,22.35
2023-02-19T05:36:23.441Z,26.52
2023-02-19T05:38:56.208Z,13.93
2023-02-19T05:41:27.271Z,14.75
2023-02-19T05:43:57.411Z,20.20
2023-02-19T05:46:29.429Z,17.67
2023-02-19T05:48:58.975Z,16.35
2023-02-19T05:51:28.574Z,14.35
2023-02-19T05:53:59.062Z,16.67
2023-02-19T05:56:36.101Z,22.27
2023-02-19T05:59:09.902Z,8.35
2023-02-19T06:01:43.091Z,19.50
2023-02-19T06:04:15.982Z,22.38
2023-02-19T06:06:50.935Z,23.25
2023-02-19T06:09:24.636Z,14.55
2023-02-19T06:11:55.570Z,17.08
2023-02-19T06:14:26.303Z,17.83
2023-02-19T06:16:57.858Z,18.23
2023-02-19T06:19:30.738Z,14.70
2023-02-19T06:22:03.521Z,16.13
2023-02-19T06:24:36.398Z,19.95
2023-02-19T06:27:08.668Z,11.80
2023-02-19T06:29:39.736Z,27.10
2023-02-19T06:32:13.503Z,17.27
2023-02-19T06:34:43.438Z,20.17
2023-02-19T06:37:14.263Z,16.15
2023-02-19T06:39:46.247Z,17.38
2023-02-19T06:42:17.380Z,26.52
2023-02-19T06:44:49.667Z,17.10
2023-02-19T06:47:27.804Z,21.13
2023-02-19T06:49:59.003Z,21.58
2023-02-19T06:52:29.870Z,17.85
2023-02-19T06:55:04.793Z,24.73
2023-02-19T06:57:35.416Z,17.30
2023-02-19T07:00:18.255Z,14.85
2023-02-19T07:02:58.226Z,17.58
2023-02-19T07:05:32.311Z,14.52
2023-02-19T07:08:03.661Z,12.50
2023-02-19T07:10:36.659Z,21.60
2023-02-19T07:13:08.086Z,16.58
2023-02-19T07:15:43.391Z,18.38
2023-02-19T07:18:19.302Z,25.85
2023-02-19T07:20:51.763Z,21.58
2023-02-19T07:23:21.640Z,15.05
2023-02-19T07:25:56.116Z,15.73
2023-02-19T07:31:04.655Z,20.58
2023-02-19T07:33:34.336Z,7.78
2023-02-19T07:36:04.978Z,17.27
2023-02-19T07:38:34.601Z,21.50
2023-02-19T07:44:48.346Z,11.60
2023-02-19T07:47:21.674Z,14.85
2023-02-19T07:49:53.331Z,19.00
2023-02-19T07:52:23.436Z,21.23
2023-02-19T07:55:01.488Z,12.32
2023-02-19T07:57:34.527Z,26.52
2023-02-19T08:00:15.250Z,22.52
2023-02-19T08:03:02.736Z,19.02
2023-02-19T08:05:37.768Z,13.70
2023-02-19T08:08:08.889Z,16.98
2023-02-19T08:10:56.031Z,19.75
2023-02-19T08:13:26.238Z,16.10
2023-02-19T08:16:21.813Z,16.75
2023-02-19T08:18:58.210Z,26.60
2023-02-19T08:21:29.685Z,15.30
2023-02-19T08:24:01.184Z,21.75
2023-02-19T08:26:33.502Z,17.38
2023-02-19T08:29:03.012Z,17.63
2023-02-19T08:31:36.817Z,15.85
2023-02-19T08:34:07.568Z,14.85
2023-02-19T08:36:37.357Z,13.82
2023-02-19T08:39:07.486Z,17.60
2023-02-19T08:41:44.263Z,16.75
2023-02-19T08:44:13.760Z,14.85
2023-02-19T08:46:45.830Z,16.45
2023-02-19T08:49:17.280Z,17.17
2023-02-19T08:51:49.225Z,15.18
2023-02-19T08:54:20.813Z,15.40
2023-02-19T08:56:50.834Z,13.30
2023-02-19T08:59:23.474Z,14.10
2023-02-19T09:01:57.434Z,15.07
2023-02-19T09:04:32.480Z,14.73
2023-02-19T09:07:03.125Z,26.08
2023-02-19T09:09:33.479Z,17.73
2023-02-19T09:12:06.158Z,19.60
2023-02-19T09:14:49.300Z,13.05
2023-02-19T09:17:22.699Z,12.55
2023-02-19T09:19:55.090Z,10.25
2023-02-19T09:22:34.947Z,19.50
2023-02-19T09:25:08.218Z,20.70
2023-02-19T09:27:42.630Z,14.13
2023-02-19T09:30:16.590Z,27.20
2023-02-19T09:32:56.378Z,14.43
2023-02-19T09:35:30.953Z,20.58
2023-02-19T09:38:06.188Z,19.07
2023-02-19T09:40:42.962Z,19.57
2023-02-19T09:43:20.977Z,10.30
2023-02-19T09:46:03.708Z,25.73
2023-02-19T09:48:39.432Z,19.40
2023-02-19T09:51:14.275Z,8.90
2023-02-19T09:53:49.418Z,17.33
2023-02-19T09:56:29.877Z,13.85
2023-02-19T09:59:05.807Z,18.38
2023-02-19T10:01:40.978Z,20.90
2023-02-19T10:04:16.657Z,19.05
2023-02-19T10:06:49.877Z,12.70
2023-02-19T10:09:27.554Z,27.13
2023-02-19T10:12:00.991Z,17.33
2023-02-19T10:14:40.145Z,19.92
2023-02-19T10:17:15.621Z,18.98
2023-02-19T10:19:50.153Z,19.95
2023-02-19T10:22:23.795Z,17.33
2023-02-19T10:25:00.428Z,15.65
2023-02-19T10:27:34.733Z,19.55
2023-02-19T10:30:04.516Z,13.10
2023-02-19T10:32:35.707Z,14.07
2023-02-19T10:35:16.314Z,12.50
2023-02-19T10:37:49.023Z,17.65
2023-02-19T10:40:20.883Z,10.63
2023-02-19T10:42:52.752Z,15.45
2023-02-19T10:45:24.843Z,17.02
2023-02-19T10:47:54.661Z,16.48
2023-02-19T10:50:29.787Z,12.70
2023-02-19T10:53:01.513Z,15.50
2023-02-19T10:55:37.911Z,21.40
2023-02-19T10:58:34.930Z,21.50
2023-02-19T11:01:22.127Z,24.80
2023-02-19T11:03:54.717Z,20.17
2023-02-19T11:06:32.448Z,24.80
2023-02-19T11:09:06.754Z,16.73
2023-02-19T11:11:42.180Z,14.85
2023-02-19T11:14:21.341Z,17.63
2023-02-19T11:16:54.414Z,20.20
2023-02-19T11:19:39.584Z,14.60
2023-02-19T11:22:38.709Z,9.45
2023-02-19T11:25:20.383Z,16.45
2023-02-19T11:28:00.122Z,11.65
2023-02-19T11:30:46.284Z,11.43
2023-02-19T11:33:31.086Z,8.30
2023-02-19T11:36:19.375Z,13.13
2023-02-19T11:38:52.543Z,10.88
2023-02-19T11:41:33.008Z,13.52
2023-02-19T11:44:19.411Z,11.05
2023-02-19T11:47:00.912Z,10.23
2023-02-19T11:49:45.122Z,9.68
2023-02-19T11:52:31.114Z,10.27
2023-02-19T11:57:47.450Z,9.43
2023-02-19T12:00:37.260Z,11.20
2023-02-19T12:03:40.320Z,11.40
2023-02-19T12:06:29.303Z,12.05
2023-02-19T12:09:29.262Z,12.10
2023-02-19T12:12:23.192Z,7.82
2023-02-19T12:15:29.345Z,14.40
2023-02-19T12:18:28.462Z,16.10
2023-02-19T12:21:12.851Z,14.13
2023-02-19T12:24:11.919Z,14.30
2023-02-19T12:26:50.505Z,11.60
2023-02-19T12:29:41.778Z,14.52
2023-02-19T12:32:47.391Z,17.92
2023-02-19T12:35:51.918Z,12.48
2023-02-19T12:38:38.838Z,11.45
2023-02-19T12:41:46.848Z,13.15
2023-02-19T12:44:30.924Z,13.48
2023-02-19T12:47:07.029Z,13.50
2023-02-19T12:49:42.619Z,13.25
2023-02-19T12:52:18.744Z,9.43
2023-02-19T12:54:53.604Z,9.23
2023-02-19T12:57:27.671Z,8.15
2023-02-19T13:00:08.059Z,13.05
2023-02-19T13:02:46.876Z,7.50
2023-02-19T13:05:28.153Z,13.75
2023-02-19T13:08:06.584Z,16.25
2023-02-19T13:10:44.707Z,11.18
2023-02-19T13:13:23.937Z,15.00
2023-02-19T13:16:00.934Z,13.23
2023-02-19T13:18:36.352Z,10.93
2023-02-19T13:21:07.485Z,14.25
2023-02-19T13:23:56.160Z,11.05
2023-02-19T13:26:54.195Z,11.75
2023-02-19T13:29:45.453Z,8.50
2023-02-19T13:32:57.853Z,7.55
2023-02-19T13:35:54.418Z,11.63
2023-02-19T13:38:24.098Z,7.32
2023-02-19T13:41:01.084Z,8.05
2023-02-19T13:43:40.581Z,11.82
2023-02-19T13:46:14.896Z,10.90
2023-02-19T13:48:46.433Z,9.63
2023-02-19T13:51:50.668Z,7.85
2023-02-19T13:54:29.602Z,4.30
2023-02-19T13:57:37.675Z,7.20
2023-02-19T14:00:49.266Z,7.43
2023-02-19T14:03:34.678Z,9.75
2023-02-19T14:06:09.548Z,9.05
2023-02-19T14:08:59.106Z,8.90
2023-02-19T14:12:23.730Z,2.67
2023-02-19T14:14:58.621Z,8.15
2023-02-19T14:17:35.936Z,4.63
2023-02-19T14:20:28.575Z,7.55
2023-02-19T14:23:13.243Z,6.68
2023-02-19T14:26:02.459Z,6.60
2023-02-19T14:28:40.661Z,6.78
2023-02-19T14:31:20.705Z,5.03
2023-02-19T14:33:54.203Z,4.32
2023-02-19T14:36:52.027Z,4.15
2023-02-19T14:39:24.706Z,5.50
2023-02-19T14:41:59.897Z,4.00
2023-02-19T14:44:33.445Z,7.63
2023-02-19T14:47:06.854Z,4.82
2023-02-19T14:49:43.440Z,3.78
2023-02-19T14:52:18.865Z,6.78
2023-02-19T14:54:58.429Z,8.80
2023-02-19T14:57:32.615Z,6.60
2023-02-19T15:00:04.047Z,8.15
2023-02-19T15:02:34.711Z,5.13
2023-02-19T15:05:37.821Z,5.60
2023-02-19T15:08:14.561Z,4.50
2023-02-19T15:10:46.581Z,3.85
2023-02-19T15:13:24.099Z,3.17
2023-02-19T15:16:00.414Z,4.20
2023-02-19T15:18:39.723Z,7.43
2023-02-19T15:21:17.606Z,6.75
2023-02-19T15:23:48.564Z,3.40
2023-02-19T15:26:27.478Z,3.53
2023-02-19T15:29:28.222Z,2.75
2023-02-19T15:32:08.112Z,4.20
2023-02-19T15:34:46.860Z,3.20
2023-02-19T15:37:24.378Z,4.43
2023-02-19T15:39:55.563Z,3.38
2023-02-19T15:42:30.698Z,3.85
2023-02-19T15:45:11.053Z,4.60
2023-02-19T15:47:46.814Z,5.03
2023-02-19T15:50:27.738Z,6.88
2023-02-19T15:53:23.371Z,5.82
2023-02-19T15:58:44.464Z,3.28
2023-02-19T16:01:38.827Z,5.05
2023-02-19T16:04:19.271Z,5.20
2023-02-19T16:07:31.087Z,6.43
2023-02-19T16:13:43.920Z,4.53
2023-02-19T16:16:22.667Z,5.63
2023-02-19T16:18:54.037Z,4.95
2023-02-19T16:21:28.263Z,10.23
2023-02-19T16:24:08.540Z,4.18
2023-02-19T16:26:46.093Z,5.88
2023-02-19T16:29:25.045Z,5.03
2023-02-19T16:31:59.512Z,3.42
2023-02-19T16:34:42.200Z,5.55
2023-02-19T16:37:35.519Z,5.80
2023-02-19T16:40:53.268Z,4.57
2023-02-19T16:43:36.528Z,7.53
2023-02-19T16:46:12.451Z,6.40
2023-02-19T16:48:53.392Z,7.57
2023-02-19T16:51:34.855Z,4.28
2023-02-19T16:54:07.419Z,4.88
2023-02-19T16:56:42.854Z,7.88
2023-02-19T16:59:25.196Z,3.47
2023-02-19T17:02:07.610Z,4.47
2023-02-19T17:04:48.734Z,8.27
2023-02-19T17:07:23.827Z,7.35
2023-02-19T17:09:59.088Z,5.25
2023-02-19T17:12:32.212Z,5.50
2023-02-19T17:15:03.773Z,10.85
2023-02-19T17:17:35.439Z,10.40
2023-02-19T17:20:24.467Z,12.32
2023-02-19T17:22:53.796Z,7.78
2023-02-19T17:25:24.596Z,5.93
2023-02-19T17:27:54.580Z,6.88
2023-02-19T17:30:31.480Z,6.70
2023-02-19T17:33:07.494Z,7.13
2023-02-19T17:35:40.285Z,5.57
2023-02-19T17:38:17.276Z,8.48
2023-02-19T17:40:48.204Z,6.35
2023-02-19T17:43:18.520Z,6.35
2023-02-19T17:45:48.030Z,9.63
2023-02-19T17:48:19.289Z,8.38
2023-02-19T17:50:52.851Z,8.23
2023-02-19T17:53:23.923Z,11.65
2023-02-19T17:55:57.632Z,7.80
2023-02-19T17:58:27.747Z,9.07
2023-02-19T18:01:03.195Z,6.70
2023-02-19T18:03:38.990Z,5.13
2023-02-19T18:06:16.099Z,12.48
2023-02-19T18:08:51.892Z,8.50
2023-02-19T18:11:25.657Z,8.90
2023-02-19T18:13:58.795Z,8.05
2023-02-19T18:16:30.907Z,11.52
2023-02-19T18:19:03.789Z,11.10
2023-02-19T18:21:37.260Z,13.88
2023-02-19T18:24:09.276Z,10.98
2023-02-19T18:26:40.661Z,9.07
2023-02-19T18:29:13.232Z,13.05
2023-02-19T18:31:51.582Z,15.02
2023-02-19T18:34:29.444Z,13.10
2023-02-19T18:37:14.725Z,11.93
2023-02-19T18:40:05.419Z,11.23
2023-02-19T18:42:42.399Z,8.18
2023-02-19T18:45:13.146Z,20.08
2023-02-19T18:50:39.490Z,9.18
2023-02-19T18:53:12.004Z,17.23
2023-02-19T18:55:44.027Z,13.82
2023-02-19T18:58:18.554Z,14.30
2023-02-19T19:00:51.261Z,10.63
2023-02-19T19:03:22.391Z,10.90
2023-02-19T19:05:53.319Z,11.25
2023-02-19T19:08:30.540Z,19.48
2023-02-19T19:11:02.474Z,19.13
2023-02-19T19:13:46.325Z,17.42
2023-02-19T19:16:17.457Z,22.60
2023-02-19T19:18:50.204Z,12.88
2023-02-19T19:21:22.179Z,15.90
2023-02-19T19:23:53.741Z,15.48
2023-02-19T19:26:23.910Z,14.32
2023-02-19T19:28:54.729Z,13.23
2023-02-19T19:31:28.328Z,10.07
2023-02-19T19:34:01.236Z,16.65
2023-02-19T19:36:30.938Z,17.98
2023-02-19T19:39:02.436Z,21.20
2023-02-19T19:41:33.119Z,16.90
2023-02-19T19:44:05.649Z,19.90
2023-02-19T19:46:35.399Z,35.88
2023-02-19T19:49:06.528Z,27.38
2023-02-19T19:51:38.622Z,23.98
2023-02-19T19:54:13.238Z,28.00
2023-02-19T19:56:46.108Z,28.90
2023-02-19T19:59:17.985Z,28.48
2023-02-19T20:01:52.667Z,22.88
2023-02-19T20:04:31.476Z,20.87
2023-02-19T20:07:02.583Z,21.90
2023-02-19T20:09:37.606Z,20.73
2023-02-19T20:12:11.415Z,16.13
2023-02-19T20:14:41.838Z,16.65
2023-02-19T20:17:14.212Z,16.35
2023-02-19T20:19:45.484Z,15.50
2023-02-19T20:22:16.347Z,13.52
2023-02-19T20:24:52.078Z,19.65
2023-02-19T20:27:24.524Z,12.90
2023-02-19T20:29:54.527Z,17.02
2023-02-19T20:32:25.694Z,12.18
2023-02-19T20:34:59.088Z,17.10
2023-02-19T20:37:33.022Z,10.20
2023-02-19T20:40:13.025Z,19.88
2023-02-19T20:42:44.820Z,16.73
2023-02-19T20:45:17.466Z,14.05
2023-02-19T20:47:50.678Z,25.85
2023-02-19T20:50:22.543Z,15.55
2023-02-19T20:52:52.143Z,13.15
2023-02-19T20:55:35.650Z,22.15
2023-02-19T20:58:05.967Z,17.42
2023-02-19T21:00:36.125Z,14.93
2023-02-19T21:03:09.555Z,21.75
2023-02-19T21:05:52.109Z,17.20
2023-02-19T21:08:24.403Z,11.25
2023-02-19T21:10:59.824Z,14.00
2023-02-19T21:16:12.116Z,21.95
2023-02-19T21:18:44.453Z,23.33
2023-02-19T21:21:22.044Z,21.67
2023-02-19T21:24:03.604Z,20.90
2023-02-19T21:26:41.700Z,17.98
2023-02-19T21:29:13.484Z,21.27
2023-02-19T21:31:46.069Z,10.65
2023-02-19T21:34:18.596Z,11.95
2023-02-19T21:36:48.488Z,16.55
2023-02-19T21:39:20.370Z,20.30
2023-02-19T21:41:51.750Z,15.05
2023-02-19T21:44:22.348Z,20.40
2023-02-19T21:46:54.814Z,16.35
2023-02-19T21:49:29.452Z,18.70
2023-02-19T21:52:04.276Z,18.43
2023-02-19T21:54:36.278Z,17.15
2023-02-19T21:57:12.530Z,19.25
2023-02-19T21:59:43.145Z,17.85
2023-02-19T22:02:13.902Z,15.85
2023-02-19T22:04:43.382Z,15.18
2023-02-19T22:07:13.529Z,13.40
2023-02-19T22:09:44.832Z,19.35
2023-02-19T22:12:17.395Z,14.65
2023-02-19T22:14:51.924Z,17.08
2023-02-19T22:17:22.492Z,22.02
2023-02-19T22:19:55.301Z,19.95
2023-02-19T22:22:30.064Z,19.05
2023-02-19T22:25:02.240Z,12.83
2023-02-19T22:27:36.863Z,19.77
2023-02-19T22:30:26.822Z,14.52
2023-02-19T22:33:20.188Z,17.00
2023-02-19T22:35:54.044Z,18.50
2023-02-19T22:38:25.481Z,17.90
2023-02-19T22:40:56.218Z,16.52
2023-02-19T22:43:31.793Z,15.80
2023-02-19T22:46:03.104Z,17.63
2023-02-19T22:48:32.597Z,17.90
2023-02-19T22:51:03.043Z,25.65
2023-02-19T22:53:33.283Z,19.50
2023-02-19T22:56:03.821Z,21.23
2023-02-19T22:58:37.217Z,19.35
2023-02-19T23:01:11.091Z,11.32
2023-02-19T23:03:59.822Z,18.50
2023-02-19T23:06:29.972Z,16.02
2023-02-19T23:09:00.111Z,17.15
2023-02-19T23:11:30.912Z,18.20
2023-02-19T23:14:01.330Z,15.32
2023-02-19T23:16:33.054Z,21.58
2023-02-19T23:19:01.427Z,24.20
2023-02-19T23:21:29.819Z,21.55
2023-02-19T23:23:58.429Z,19.58
2023-02-19T23:26:27.503Z,24.27
2023-02-19T23:28:56.271Z,18.63
2023-02-19T23:31:27.068Z,19.55
2023-02-19T23:33:56.890Z,24.95
2023-02-19T23:36:25.569Z,25.77
2023-02-19T23:38:54.412Z,25.50
2023-02-19T23:41:22.873Z,24.60
2023-02-19T23:43:52.565Z,20.00
2023-02-19T23:46:21.127Z,27.30
2023-02-19T23:48:51.337Z,27.30
2023-02-19T23:51:20.054Z,19.77
2023-02-19T23:53:48.614Z,22.02
2023-02-19T23:56:25.222Z,24.88
2023-02-19T23:58:53.963Z,28.92
